sensor_id;sensor_type;location;lat;lon;timestamp;temperature;humidity
57892;DHT22;43708;48.828;9.166;2023-04-03T00:01:08;21.30;74.00
57892;DHT22;43708;48.828;9.166;2023-04-03T00:03:34;21.30;73.20
57892;DHT22;43708;48.828;9.166;2023-04-03T00:06:00;21.30;73.20
57892;DHT22;43708;48.828;9.166;2023-04-03T00:08:26;21.30;73.20
57892;DHT22;43708;48.828;9.166;2023-04-03T00:10:52;21.20;73.20
57892;DHT22;43708;48.828;9.166;2023-04-03T00:13:17;21.30;73.20
57892;DHT22;43708;48.828;9.166;2023-04-03T00:15:43;21.30;73.20
57892;DHT22;43708;48.828;9.166;2023-04-03T00:18:09;21.20;73.10
57892;DHT22;43708;48.828;9.166;2023-04-03T00:20:35;21.30;73.10
57892;DHT22;43708;48.828;9.166;2023-04-03T00:23:01;21.20;73.10
57892;DHT22;43708;48.828;9.166;2023-04-03T00:25:27;21.20;73.10
57892;DHT22;43708;48.828;9.166;2023-04-03T00:27:52;21.20;73.10
57892;DHT22;43708;48.828;9.166;2023-04-03T00:30:20;21.20;73.10
57892;DHT22;43708;48.828;9.166;2023-04-03T00:32:48;21.20;73.00
57892;DHT22;43708;48.828;9.166;2023-04-03T00:35:13;21.20;73.00
57892;DHT22;43708;48.828;9.166;2023-04-03T00:37:41;21.20;73.00
57892;DHT22;43708;48.828;9.166;2023-04-03T00:40:08;21.20;73.00
57892;DHT22;43708;48.828;9.166;2023-04-03T00:42:36;21.20;73.00
57892;DHT22;43708;48.828;9.166;2023-04-03T00:47:29;21.10;72.90
57892;DHT22;43708;48.828;9.166;2023-04-03T00:49:56;21.10;72.80
57892;DHT22;43708;48.828;9.166;2023-04-03T00:52:25;21.10;72.80
57892;DHT22;43708;48.828;9.166;2023-04-03T00:54:54;21.10;72.80
57892;DHT22;43708;48.828;9.166;2023-04-03T00:57:22;21.10;72.80
57892;DHT22;43708;48.828;9.166;2023-04-03T00:59:56;21.10;72.80
57892;DHT22;43708;48.828;9.166;2023-04-03T01:02:23;21.10;72.80
57892;DHT22;43708;48.828;9.166;2023-04-03T01:04:49;21.10;72.80
57892;DHT22;43708;48.828;9.166;2023-04-03T01:07:21;21.10;72.70
57892;DHT22;43708;48.828;9.166;2023-04-03T01:09:48;21.00;72.70
57892;DHT22;43708;48.828;9.166;2023-04-03T01:12:26;21.00;72.70
57892;DHT22;43708;48.828;9.166;2023-04-03T01:14:56;21.00;72.70
57892;DHT22;43708;48.828;9.166;2023-04-03T01:23:12;21.00;73.40
57892;DHT22;43708;48.828;9.166;2023-04-03T01:25:46;21.00;72.60
57892;DHT22;43708;48.828;9.166;2023-04-03T01:28:16;21.00;72.60
57892;DHT22;43708;48.828;9.166;2023-04-03T01:33:29;21.00;72.60
57892;DHT22;43708;48.828;9.166;2023-04-03T01:35:55;20.90;72.50
57892;DHT22;43708;48.828;9.166;2023-04-03T01:38:21;21.00;72.60
57892;DHT22;43708;48.828;9.166;2023-04-03T01:40:46;20.90;72.50
57892;DHT22;43708;48.828;9.166;2023-04-03T01:43:12;20.90;72.50
57892;DHT22;43708;48.828;9.166;2023-04-03T01:45:38;20.90;72.50
57892;DHT22;43708;48.828;9.166;2023-04-03T01:48:04;20.90;72.50
57892;DHT22;43708;48.828;9.166;2023-04-03T01:50:29;20.90;72.40
57892;DHT22;43708;48.828;9.166;2023-04-03T01:52:55;20.90;72.40
57892;DHT22;43708;48.828;9.166;2023-04-03T01:55:21;20.90;72.40
57892;DHT22;43708;48.828;9.166;2023-04-03T01:57:46;20.90;72.40
57892;DHT22;43708;48.828;9.166;2023-04-03T02:00:12;20.90;72.40
57892;DHT22;43708;48.828;9.166;2023-04-03T02:02:39;20.90;72.30
57892;DHT22;43708;48.828;9.166;2023-04-03T02:05:04;20.90;72.30
57892;DHT22;43708;48.828;9.166;2023-04-03T02:07:30;20.90;72.30
57892;DHT22;43708;48.828;9.166;2023-04-03T02:09:56;20.90;72.20
57892;DHT22;43708;48.828;9.166;2023-04-03T02:12:21;20.90;72.20
57892;DHT22;43708;48.828;9.166;2023-04-03T02:14:47;20.90;72.20
57892;DHT22;43708;48.828;9.166;2023-04-03T02:17:12;20.90;72.20
57892;DHT22;43708;48.828;9.166;2023-04-03T02:19:38;20.90;72.20
57892;DHT22;43708;48.828;9.166;2023-04-03T02:22:07;20.90;72.20
57892;DHT22;43708;48.828;9.166;2023-04-03T02:24:33;20.90;72.20
57892;DHT22;43708;48.828;9.166;2023-04-03T02:26:59;20.90;72.20
57892;DHT22;43708;48.828;9.166;2023-04-03T02:29:25;20.90;72.20
57892;DHT22;43708;48.828;9.166;2023-04-03T02:31:50;20.90;72.20
57892;DHT22;43708;48.828;9.166;2023-04-03T02:34:16;20.90;72.20
57892;DHT22;43708;48.828;9.166;2023-04-03T02:36:42;20.90;72.20
57892;DHT22;43708;48.828;9.166;2023-04-03T02:39:08;20.90;72.20
57892;DHT22;43708;48.828;9.166;2023-04-03T02:41:33;20.90;72.30
57892;DHT22;43708;48.828;9.166;2023-04-03T02:44:01;20.90;72.40
57892;DHT22;43708;48.828;9.166;2023-04-03T02:46:27;20.90;72.40
57892;DHT22;43708;48.828;9.166;2023-04-03T02:48:53;20.80;72.30
57892;DHT22;43708;48.828;9.166;2023-04-03T02:51:19;20.80;72.30
57892;DHT22;43708;48.828;9.166;2023-04-03T02:53:44;20.80;72.30
57892;DHT22;43708;48.828;9.166;2023-04-03T02:56:10;20.80;72.30
57892;DHT22;43708;48.828;9.166;2023-04-03T02:58:37;20.80;72.20
57892;DHT22;43708;48.828;9.166;2023-04-03T03:01:03;20.80;72.30
57892;DHT22;43708;48.828;9.166;2023-04-03T03:03:28;20.80;72.20
57892;DHT22;43708;48.828;9.166;2023-04-03T03:06:08;20.80;72.20
57892;DHT22;43708;48.828;9.166;2023-04-03T03:08:35;20.80;72.20
57892;DHT22;43708;48.828;9.166;2023-04-03T03:11:01;20.70;72.90
57892;DHT22;43708;48.828;9.166;2023-04-03T03:13:27;20.70;72.10
57892;DHT22;43708;48.828;9.166;2023-04-03T03:15:52;20.70;72.10
57892;DHT22;43708;48.828;9.166;2023-04-03T03:18:18;20.70;72.90
57892;DHT22;43708;48.828;9.166;2023-04-03T03:20:44;20.70;72.10
57892;DHT22;43708;48.828;9.166;2023-04-03T03:23:09;20.70;72.00
57892;DHT22;43708;48.828;9.166;2023-04-03T03:25:39;20.70;72.00
57892;DHT22;43708;48.828;9.166;2023-04-03T03:28:05;20.70;72.00
57892;DHT22;43708;48.828;9.166;2023-04-03T03:30:31;20.70;72.00
57892;DHT22;43708;48.828;9.166;2023-04-03T03:32:56;20.70;72.00
57892;DHT22;43708;48.828;9.166;2023-04-03T03:35:22;20.70;72.00
57892;DHT22;43708;48.828;9.166;2023-04-03T03:37:48;20.70;72.00
57892;DHT22;43708;48.828;9.166;2023-04-03T03:40:13;20.70;72.00
57892;DHT22;43708;48.828;9.166;2023-04-03T03:42:39;20.70;72.00
57892;DHT22;43708;48.828;9.166;2023-04-03T03:45:06;20.60;71.90
57892;DHT22;43708;48.828;9.166;2023-04-03T03:47:31;20.60;71.80
57892;DHT22;43708;48.828;9.166;2023-04-03T03:49:57;20.60;71.80
57892;DHT22;43708;48.828;9.166;2023-04-03T03:52:23;20.60;71.80
57892;DHT22;43708;48.828;9.166;2023-04-03T03:54:48;20.60;71.80
57892;DHT22;43708;48.828;9.166;2023-04-03T03:57:14;20.60;71.80
57892;DHT22;43708;48.828;9.166;2023-04-03T03:59:40;20.60;71.80
57892;DHT22;43708;48.828;9.166;2023-04-03T04:02:07;20.60;71.80
57892;DHT22;43708;48.828;9.166;2023-04-03T04:04:33;20.60;71.80
57892;DHT22;43708;48.828;9.166;2023-04-03T04:06:58;20.60;71.70
57892;DHT22;43708;48.828;9.166;2023-04-03T04:09:26;20.60;71.70
57892;DHT22;43708;48.828;9.166;2023-04-03T04:11:52;20.60;71.60
57892;DHT22;43708;48.828;9.166;2023-04-03T04:14:18;20.60;71.60
57892;DHT22;43708;48.828;9.166;2023-04-03T04:16:46;20.60;71.60
57892;DHT22;43708;48.828;9.166;2023-04-03T04:19:12;20.60;71.60
57892;DHT22;43708;48.828;9.166;2023-04-03T04:21:37;20.60;71.60
57892;DHT22;43708;48.828;9.166;2023-04-03T04:24:03;20.60;71.60
57892;DHT22;43708;48.828;9.166;2023-04-03T04:26:29;20.60;71.60
57892;DHT22;43708;48.828;9.166;2023-04-03T04:28:54;20.60;71.60
57892;DHT22;43708;48.828;9.166;2023-04-03T04:31:20;20.60;71.60
57892;DHT22;43708;48.828;9.166;2023-04-03T04:33:46;20.60;71.60
57892;DHT22;43708;48.828;9.166;2023-04-03T04:36:11;20.70;71.70
57892;DHT22;43708;48.828;9.166;2023-04-03T04:38:37;20.60;71.60
57892;DHT22;43708;48.828;9.166;2023-04-03T04:41:04;20.60;71.60
57892;DHT22;43708;48.828;9.166;2023-04-03T04:43:29;20.60;71.60
57892;DHT22;43708;48.828;9.166;2023-04-03T04:46:06;20.60;71.60
57892;DHT22;43708;48.828;9.166;2023-04-03T04:48:31;20.60;71.60
57892;DHT22;43708;48.828;9.166;2023-04-03T04:50:57;20.60;71.60
57892;DHT22;43708;48.828;9.166;2023-04-03T04:53:23;20.60;71.60
57892;DHT22;43708;48.828;9.166;2023-04-03T04:55:48;20.60;71.60
57892;DHT22;43708;48.828;9.166;2023-04-03T04:58:14;20.60;71.60
57892;DHT22;43708;48.828;9.166;2023-04-03T05:00:40;20.50;71.60
57892;DHT22;43708;48.828;9.166;2023-04-03T05:03:06;20.50;71.50
57892;DHT22;43708;48.828;9.166;2023-04-03T05:05:31;20.50;71.50
57892;DHT22;43708;48.828;9.166;2023-04-03T05:07:57;20.50;71.40
57892;DHT22;43708;48.828;9.166;2023-04-03T05:10:23;20.50;71.40
57892;DHT22;43708;48.828;9.166;2023-04-03T05:12:48;20.50;71.40
57892;DHT22;43708;48.828;9.166;2023-04-03T05:15:14;20.50;71.40
57892;DHT22;43708;48.828;9.166;2023-04-03T05:17:39;20.50;71.40
57892;DHT22;43708;48.828;9.166;2023-04-03T05:20:06;20.50;71.40
57892;DHT22;43708;48.828;9.166;2023-04-03T05:22:32;20.50;71.40
57892;DHT22;43708;48.828;9.166;2023-04-03T05:24:57;20.50;71.40
57892;DHT22;43708;48.828;9.166;2023-04-03T05:27:23;20.50;71.50
57892;DHT22;43708;48.828;9.166;2023-04-03T05:29:49;20.50;71.50
57892;DHT22;43708;48.828;9.166;2023-04-03T05:32:15;20.50;71.40
57892;DHT22;43708;48.828;9.166;2023-04-03T05:34:41;20.50;71.40
57892;DHT22;43708;48.828;9.166;2023-04-03T05:37:06;20.50;71.40
57892;DHT22;43708;48.828;9.166;2023-04-03T05:39:32;20.50;71.50
57892;DHT22;43708;48.828;9.166;2023-04-03T05:41:58;20.50;71.40
57892;DHT22;43708;48.828;9.166;2023-04-03T05:44:24;20.50;71.50
57892;DHT22;43708;48.828;9.166;2023-04-03T05:46:49;20.50;72.20
57892;DHT22;43708;48.828;9.166;2023-04-03T05:49:15;20.50;71.50
57892;DHT22;43708;48.828;9.166;2023-04-03T05:51:40;20.50;71.50
57892;DHT22;43708;48.828;9.166;2023-04-03T05:54:13;20.50;71.50
57892;DHT22;43708;48.828;9.166;2023-04-03T05:56:41;20.50;71.50
57892;DHT22;43708;48.828;9.166;2023-04-03T05:59:07;20.40;71.50
57892;DHT22;43708;48.828;9.166;2023-04-03T06:01:32;20.40;71.40
57892;DHT22;43708;48.828;9.166;2023-04-03T06:03:59;20.40;71.40
57892;DHT22;43708;48.828;9.166;2023-04-03T06:06:25;20.40;71.30
57892;DHT22;43708;48.828;9.166;2023-04-03T06:08:51;20.40;71.30
57892;DHT22;43708;48.828;9.166;2023-04-03T06:11:17;20.40;71.30
57892;DHT22;43708;48.828;9.166;2023-04-03T06:13:42;20.40;71.20
57892;DHT22;43708;48.828;9.166;2023-04-03T06:16:12;20.40;71.20
57892;DHT22;43708;48.828;9.166;2023-04-03T06:18:40;20.40;71.10
57892;DHT22;43708;48.828;9.166;2023-04-03T06:21:06;20.40;71.10
57892;DHT22;43708;48.828;9.166;2023-04-03T06:23:33;20.40;71.10
57892;DHT22;43708;48.828;9.166;2023-04-03T06:25:58;20.40;70.90
57892;DHT22;43708;48.828;9.166;2023-04-03T06:28:25;20.40;70.90
57892;DHT22;43708;48.828;9.166;2023-04-03T06:30:50;20.40;70.90
57892;DHT22;43708;48.828;9.166;2023-04-03T06:33:16;20.40;70.80
57892;DHT22;43708;48.828;9.166;2023-04-03T06:35:42;20.40;70.80
57892;DHT22;43708;48.828;9.166;2023-04-03T06:38:07;20.30;70.70
57892;DHT22;43708;48.828;9.166;2023-04-03T06:40:35;20.40;70.50
57892;DHT22;43708;48.828;9.166;2023-04-03T06:43:01;20.30;70.50
57892;DHT22;43708;48.828;9.166;2023-04-03T06:45:27;20.30;70.60
57892;DHT22;43708;48.828;9.166;2023-04-03T06:47:53;20.30;70.60
57892;DHT22;43708;48.828;9.166;2023-04-03T06:50:19;20.30;70.60
57892;DHT22;43708;48.828;9.166;2023-04-03T06:52:45;20.30;70.70
57892;DHT22;43708;48.828;9.166;2023-04-03T06:55:11;20.30;70.70
57892;DHT22;43708;48.828;9.166;2023-04-03T06:57:37;20.30;70.60
57892;DHT22;43708;48.828;9.166;2023-04-03T07:00:04;20.30;70.60
57892;DHT22;43708;48.828;9.166;2023-04-03T07:02:30;20.30;70.60
57892;DHT22;43708;48.828;9.166;2023-04-03T07:04:56;20.30;70.70
57892;DHT22;43708;48.828;9.166;2023-04-03T07:07:21;20.30;70.70
57892;DHT22;43708;48.828;9.166;2023-04-03T07:09:47;20.30;70.80
57892;DHT22;43708;48.828;9.166;2023-04-03T07:12:13;20.30;70.70
57892;DHT22;43708;48.828;9.166;2023-04-03T07:14:39;20.30;70.70
57892;DHT22;43708;48.828;9.166;2023-04-03T07:17:04;20.30;70.70
57892;DHT22;43708;48.828;9.166;2023-04-03T07:19:30;20.30;70.70
57892;DHT22;43708;48.828;9.166;2023-04-03T07:21:56;20.30;70.70
57892;DHT22;43708;48.828;9.166;2023-04-03T07:24:22;20.30;70.70
57892;DHT22;43708;48.828;9.166;2023-04-03T07:26:52;20.30;70.70
57892;DHT22;43708;48.828;9.166;2023-04-03T07:29:18;20.30;70.80
57892;DHT22;43708;48.828;9.166;2023-04-03T07:31:43;20.30;70.80
57892;DHT22;43708;48.828;9.166;2023-04-03T07:34:10;20.30;70.80
57892;DHT22;43708;48.828;9.166;2023-04-03T07:36:36;20.30;70.80
57892;DHT22;43708;48.828;9.166;2023-04-03T07:39:02;20.30;70.80
57892;DHT22;43708;48.828;9.166;2023-04-03T07:41:28;20.30;70.80
57892;DHT22;43708;48.828;9.166;2023-04-03T07:43:55;20.30;70.80
57892;DHT22;43708;48.828;9.166;2023-04-03T07:46:22;20.30;70.80
57892;DHT22;43708;48.828;9.166;2023-04-03T07:48:48;20.30;70.80
57892;DHT22;43708;48.828;9.166;2023-04-03T07:51:13;20.30;70.80
57892;DHT22;43708;48.828;9.166;2023-04-03T07:53:40;20.30;70.80
57892;DHT22;43708;48.828;9.166;2023-04-03T07:56:06;20.30;70.90
57892;DHT22;43708;48.828;9.166;2023-04-03T07:58:32;20.30;70.90
57892;DHT22;43708;48.828;9.166;2023-04-03T08:00:58;20.30;70.90
57892;DHT22;43708;48.828;9.166;2023-04-03T08:03:25;20.30;71.00
57892;DHT22;43708;48.828;9.166;2023-04-03T08:05:50;20.30;71.00
57892;DHT22;43708;48.828;9.166;2023-04-03T08:08:19;20.30;71.00
57892;DHT22;43708;48.828;9.166;2023-04-03T08:10:51;20.30;71.00
57892;DHT22;43708;48.828;9.166;2023-04-03T08:13:18;20.30;71.00
57892;DHT22;43708;48.828;9.166;2023-04-03T08:15:43;20.30;71.10
57892;DHT22;43708;48.828;9.166;2023-04-03T08:18:09;20.30;71.00
57892;DHT22;43708;48.828;9.166;2023-04-03T08:20:35;20.30;71.00
57892;DHT22;43708;48.828;9.166;2023-04-03T08:23:02;20.30;70.90
57892;DHT22;43708;48.828;9.166;2023-04-03T08:25:28;20.30;71.00
57892;DHT22;43708;48.828;9.166;2023-04-03T08:27:54;20.30;70.90
57892;DHT22;43708;48.828;9.166;2023-04-03T08:30:20;20.20;70.80
57892;DHT22;43708;48.828;9.166;2023-04-03T08:32:46;20.30;70.90
57892;DHT22;43708;48.828;9.166;2023-04-03T08:35:12;20.30;70.90
57892;DHT22;43708;48.828;9.166;2023-04-03T08:37:39;20.30;70.80
57892;DHT22;43708;48.828;9.166;2023-04-03T08:40:10;20.30;70.80
57892;DHT22;43708;48.828;9.166;2023-04-03T08:48:50;20.30;70.80
57892;DHT22;43708;48.828;9.166;2023-04-03T08:50:55;20.30;70.80
57892;DHT22;43708;48.828;9.166;2023-04-03T08:53:25;20.30;70.70
57892;DHT22;43708;48.828;9.166;2023-04-03T08:55:53;20.30;70.70
57892;DHT22;43708;48.828;9.166;2023-04-03T08:58:28;20.30;70.70
57892;DHT22;43708;48.828;9.166;2023-04-03T09:00:58;20.30;70.80
57892;DHT22;43708;48.828;9.166;2023-04-03T09:03:30;20.30;71.50
57892;DHT22;43708;48.828;9.166;2023-04-03T09:06:02;20.30;70.70
57892;DHT22;43708;48.828;9.166;2023-04-03T09:08:31;20.30;70.70
57892;DHT22;43708;48.828;9.166;2023-04-03T09:11:21;20.30;70.60
57892;DHT22;43708;48.828;9.166;2023-04-03T09:13:59;20.30;70.60
57892;DHT22;43708;48.828;9.166;2023-04-03T09:16:36;20.30;70.50
57892;DHT22;43708;48.828;9.166;2023-04-03T09:22:13;20.30;70.50
57892;DHT22;43708;48.828;9.166;2023-04-03T09:24:41;20.40;70.60
57892;DHT22;43708;48.828;9.166;2023-04-03T09:27:10;20.40;70.50
57892;DHT22;43708;48.828;9.166;2023-04-03T09:29:40;20.40;70.50
57892;DHT22;43708;48.828;9.166;2023-04-03T09:32:27;20.40;70.40
57892;DHT22;43708;48.828;9.166;2023-04-03T09:34:55;20.40;70.30
57892;DHT22;43708;48.828;9.166;2023-04-03T09:37:42;20.40;70.30
57892;DHT22;43708;48.828;9.166;2023-04-03T09:40:33;20.40;70.40
57892;DHT22;43708;48.828;9.166;2023-04-03T09:45:41;20.40;70.30
57892;DHT22;43708;48.828;9.166;2023-04-03T09:53:44;20.40;70.40
57892;DHT22;43708;48.828;9.166;2023-04-03T09:58:46;20.40;70.40
57892;DHT22;43708;48.828;9.166;2023-04-03T10:01:31;20.40;70.50
57892;DHT22;43708;48.828;9.166;2023-04-03T10:04:11;20.40;70.50
57892;DHT22;43708;48.828;9.166;2023-04-03T10:06:42;20.40;70.50
57892;DHT22;43708;48.828;9.166;2023-04-03T10:09:27;20.40;70.40
57892;DHT22;43708;48.828;9.166;2023-04-03T10:12:03;20.40;70.50
57892;DHT22;43708;48.828;9.166;2023-04-03T10:17:28;20.40;70.40
57892;DHT22;43708;48.828;9.166;2023-04-03T10:23:18;20.40;70.40
57892;DHT22;43708;48.828;9.166;2023-04-03T10:34:33;20.40;70.50
57892;DHT22;43708;48.828;9.166;2023-04-03T10:37:27;20.40;70.60
57892;DHT22;43708;48.828;9.166;2023-04-03T10:39:58;20.40;70.60
57892;DHT22;43708;48.828;9.166;2023-04-03T10:42:46;20.40;70.60
57892;DHT22;43708;48.828;9.166;2023-04-03T10:45:24;20.40;70.60
57892;DHT22;43708;48.828;9.166;2023-04-03T10:56:03;20.30;70.40
57892;DHT22;43708;48.828;9.166;2023-04-03T10:58:36;20.30;70.50
57892;DHT22;43708;48.828;9.166;2023-04-03T11:01:16;20.30;70.50
57892;DHT22;43708;48.828;9.166;2023-04-03T11:03:47;20.30;70.60
57892;DHT22;43708;48.828;9.166;2023-04-03T11:06:16;20.30;70.60
57892;DHT22;43708;48.828;9.166;2023-04-03T11:09:02;20.30;70.60
57892;DHT22;43708;48.828;9.166;2023-04-03T11:11:38;20.30;70.60
57892;DHT22;43708;48.828;9.166;2023-04-03T11:14:09;20.20;70.60
57892;DHT22;43708;48.828;9.166;2023-04-03T11:16:41;20.20;70.50
57892;DHT22;43708;48.828;9.166;2023-04-03T11:19:21;20.20;70.50
57892;DHT22;43708;48.828;9.166;2023-04-03T11:22:27;20.20;70.40
57892;DHT22;43708;48.828;9.166;2023-04-03T11:25:03;20.20;70.40
57892;DHT22;43708;48.828;9.166;2023-04-03T11:28:19;20.30;70.40
57892;DHT22;43708;48.828;9.166;2023-04-03T11:33:02;20.30;70.30
57892;DHT22;43708;48.828;9.166;2023-04-03T11:35:31;20.30;70.30
57892;DHT22;43708;48.828;9.166;2023-04-03T11:37:59;20.30;70.30
57892;DHT22;43708;48.828;9.166;2023-04-03T11:40:30;20.30;70.40
57892;DHT22;43708;48.828;9.166;2023-04-03T11:43:07;20.30;70.40
57892;DHT22;43708;48.828;9.166;2023-04-03T11:50:57;20.30;70.50
57892;DHT22;43708;48.828;9.166;2023-04-03T12:01:54;20.30;70.40
57892;DHT22;43708;48.828;9.166;2023-04-03T12:04:22;20.30;70.40
57892;DHT22;43708;48.828;9.166;2023-04-03T12:09:31;20.30;70.40
57892;DHT22;43708;48.828;9.166;2023-04-03T12:12:00;20.30;70.40
57892;DHT22;43708;48.828;9.166;2023-04-03T12:14:27;20.40;70.40
57892;DHT22;43708;48.828;9.166;2023-04-03T12:16:55;20.30;70.30
57892;DHT22;43708;48.828;9.166;2023-04-03T12:19:38;20.40;70.40
57892;DHT22;43708;48.828;9.166;2023-04-03T12:22:12;20.40;70.40
57892;DHT22;43708;48.828;9.166;2023-04-03T12:24:41;20.40;70.40
57892;DHT22;43708;48.828;9.166;2023-04-03T12:40:43;20.50;70.10
57892;DHT22;43708;48.828;9.166;2023-04-03T12:43:31;20.50;70.00
57892;DHT22;43708;48.828;9.166;2023-04-03T12:46:04;20.60;70.00
57892;DHT22;43708;48.828;9.166;2023-04-03T12:51:40;20.50;70.00
57892;DHT22;43708;48.828;9.166;2023-04-03T12:54:16;20.50;70.80
57892;DHT22;43708;48.828;9.166;2023-04-03T12:56:43;20.50;70.10
57892;DHT22;43708;48.828;9.166;2023-04-03T13:01:40;20.40;70.10
57892;DHT22;43708;48.828;9.166;2023-04-03T13:04:05;20.40;70.10
57892;DHT22;43708;48.828;9.166;2023-04-03T13:06:38;20.40;70.10
57892;DHT22;43708;48.828;9.166;2023-04-03T13:09:05;20.40;70.10
57892;DHT22;43708;48.828;9.166;2023-04-03T13:11:38;20.40;70.20
57892;DHT22;43708;48.828;9.166;2023-04-03T13:14:18;20.40;70.20
57892;DHT22;43708;48.828;9.166;2023-04-03T13:16:58;20.40;70.20
57892;DHT22;43708;48.828;9.166;2023-04-03T13:19:26;20.40;70.10
57892;DHT22;43708;48.828;9.166;2023-04-03T13:22:58;20.40;70.10
57892;DHT22;43708;48.828;9.166;2023-04-03T13:24:53;20.40;70.10
57892;DHT22;43708;48.828;9.166;2023-04-03T13:27:20;20.40;70.00
57892;DHT22;43708;48.828;9.166;2023-04-03T13:29:51;20.50;70.10
57892;DHT22;43708;48.828;9.166;2023-04-03T13:32:20;20.50;70.00
57892;DHT22;43708;48.828;9.166;2023-04-03T13:34:47;20.60;70.00
57892;DHT22;43708;48.828;9.166;2023-04-03T13:37:37;20.60;69.80
57892;DHT22;43708;48.828;9.166;2023-04-03T13:40:12;20.70;69.80
57892;DHT22;43708;48.828;9.166;2023-04-03T13:42:40;20.80;69.80
57892;DHT22;43708;48.828;9.166;2023-04-03T13:45:23;20.80;69.70
57892;DHT22;43708;48.828;9.166;2023-04-03T13:47:51;20.80;69.60
57892;DHT22;43708;48.828;9.166;2023-04-03T13:50:23;20.80;69.60
57892;DHT22;43708;48.828;9.166;2023-04-03T13:52:55;20.90;69.70
57892;DHT22;43708;48.828;9.166;2023-04-03T13:55:30;20.90;69.70
57892;DHT22;43708;48.828;9.166;2023-04-03T14:01:00;20.90;69.60
57892;DHT22;43708;48.828;9.166;2023-04-03T14:06:10;20.90;69.60
57892;DHT22;43708;48.828;9.166;2023-04-03T14:08:36;20.80;69.70
57892;DHT22;43708;48.828;9.166;2023-04-03T14:11:02;20.80;70.50
57892;DHT22;43708;48.828;9.166;2023-04-03T14:13:30;20.90;69.70
57892;DHT22;43708;48.828;9.166;2023-04-03T14:15:56;21.00;69.60
57892;DHT22;43708;48.828;9.166;2023-04-03T14:18:21;21.00;69.40
57892;DHT22;43708;48.828;9.166;2023-04-03T14:20:49;21.10;69.30
57892;DHT22;43708;48.828;9.166;2023-04-03T14:23:15;21.20;69.20
57892;DHT22;43708;48.828;9.166;2023-04-03T14:25:42;21.20;69.10
57892;DHT22;43708;48.828;9.166;2023-04-03T14:28:19;21.30;69.00
57892;DHT22;43708;48.828;9.166;2023-04-03T14:30:47;21.30;68.80
57892;DHT22;43708;48.828;9.166;2023-04-03T14:33:17;21.40;68.50
57892;DHT22;43708;48.828;9.166;2023-04-03T14:35:43;21.40;68.20
57892;DHT22;43708;48.828;9.166;2023-04-03T14:38:27;21.50;68.10
57892;DHT22;43708;48.828;9.166;2023-04-03T14:40:54;21.50;67.90
57892;DHT22;43708;48.828;9.166;2023-04-03T14:43:20;21.60;67.70
57892;DHT22;43708;48.828;9.166;2023-04-03T14:45:46;21.60;67.60
57892;DHT22;43708;48.828;9.166;2023-04-03T14:48:24;21.70;67.50
57892;DHT22;43708;48.828;9.166;2023-04-03T14:50:51;21.70;67.50
57892;DHT22;43708;48.828;9.166;2023-04-03T14:53:18;21.60;67.50
57892;DHT22;43708;48.828;9.166;2023-04-03T14:55:48;21.60;67.60
57892;DHT22;43708;48.828;9.166;2023-04-03T14:58:17;21.50;67.80
57892;DHT22;43708;48.828;9.166;2023-04-03T15:00:43;21.40;67.80
57892;DHT22;43708;48.828;9.166;2023-04-03T15:03:17;21.50;68.00
57892;DHT22;43708;48.828;9.166;2023-04-03T15:05:45;21.50;67.90
57892;DHT22;43708;48.828;9.166;2023-04-03T15:10:43;21.60;67.60
57892;DHT22;43708;48.828;9.166;2023-04-03T15:13:12;21.70;67.50
57892;DHT22;43708;48.828;9.166;2023-04-03T15:15:37;21.70;67.60
57892;DHT22;43708;48.828;9.166;2023-04-03T15:18:03;21.60;67.60
57892;DHT22;43708;48.828;9.166;2023-04-03T15:20:30;21.60;67.80
57892;DHT22;43708;48.828;9.166;2023-04-03T15:22:56;21.70;67.80
57892;DHT22;43708;48.828;9.166;2023-04-03T15:25:23;21.70;67.80
57892;DHT22;43708;48.828;9.166;2023-04-03T15:27:49;21.80;67.70
57892;DHT22;43708;48.828;9.166;2023-04-03T15:30:17;21.80;67.60
57892;DHT22;43708;48.828;9.166;2023-04-03T15:32:43;21.90;67.60
57892;DHT22;43708;48.828;9.166;2023-04-03T15:35:08;21.80;67.60
57892;DHT22;43708;48.828;9.166;2023-04-03T15:37:34;21.70;67.70
57892;DHT22;43708;48.828;9.166;2023-04-03T15:40:00;21.70;68.00
57892;DHT22;43708;48.828;9.166;2023-04-03T15:42:26;21.60;68.10
57892;DHT22;43708;48.828;9.166;2023-04-03T15:44:51;21.50;68.30
57892;DHT22;43708;48.828;9.166;2023-04-03T15:47:17;21.50;68.50
57892;DHT22;43708;48.828;9.166;2023-04-03T15:49:44;21.50;68.60
57892;DHT22;43708;48.828;9.166;2023-04-03T15:52:10;21.60;68.80
57892;DHT22;43708;48.828;9.166;2023-04-03T15:54:36;21.50;68.80
57892;DHT22;43708;48.828;9.166;2023-04-03T15:57:01;21.40;68.90
57892;DHT22;43708;48.828;9.166;2023-04-03T15:59:27;21.40;69.00
57892;DHT22;43708;48.828;9.166;2023-04-03T16:01:55;21.40;69.10
57892;DHT22;43708;48.828;9.166;2023-04-03T16:04:20;21.30;69.10
57892;DHT22;43708;48.828;9.166;2023-04-03T16:06:49;21.40;69.10
57892;DHT22;43708;48.828;9.166;2023-04-03T16:09:15;21.40;69.10
57892;DHT22;43708;48.828;9.166;2023-04-03T16:11:41;21.40;69.10
57892;DHT22;43708;48.828;9.166;2023-04-03T16:14:07;21.30;69.00
57892;DHT22;43708;48.828;9.166;2023-04-03T16:16:33;21.30;69.10
57892;DHT22;43708;48.828;9.166;2023-04-03T16:18:59;21.30;69.20
57892;DHT22;43708;48.828;9.166;2023-04-03T16:21:24;21.20;69.20
57892;DHT22;43708;48.828;9.166;2023-04-03T16:23:50;21.20;69.20
57892;DHT22;43708;48.828;9.166;2023-04-03T16:26:16;21.20;69.30
57892;DHT22;43708;48.828;9.166;2023-04-03T16:28:43;21.10;69.20
57892;DHT22;43708;48.828;9.166;2023-04-03T16:31:09;21.10;69.10
57892;DHT22;43708;48.828;9.166;2023-04-03T16:33:35;21.20;69.20
57892;DHT22;43708;48.828;9.166;2023-04-03T16:36:03;21.10;69.00
57892;DHT22;43708;48.828;9.166;2023-04-03T16:38:29;21.10;69.00
57892;DHT22;43708;48.828;9.166;2023-04-03T16:40:54;21.10;69.00
57892;DHT22;43708;48.828;9.166;2023-04-03T16:43:22;21.10;69.00
57892;DHT22;43708;48.828;9.166;2023-04-03T16:45:51;21.00;69.00
57892;DHT22;43708;48.828;9.166;2023-04-03T16:48:17;21.00;69.10
57892;DHT22;43708;48.828;9.166;2023-04-03T16:50:46;21.00;69.00
57892;DHT22;43708;48.828;9.166;2023-04-03T16:53:13;21.00;68.90
57892;DHT22;43708;48.828;9.166;2023-04-03T16:55:39;21.00;68.90
57892;DHT22;43708;48.828;9.166;2023-04-03T16:58:05;21.00;68.80
57892;DHT22;43708;48.828;9.166;2023-04-03T17:00:31;21.00;68.80
57892;DHT22;43708;48.828;9.166;2023-04-03T17:02:57;21.00;68.60
57892;DHT22;43708;48.828;9.166;2023-04-03T17:05:22;21.00;68.60
57892;DHT22;43708;48.828;9.166;2023-04-03T17:07:49;21.10;68.50
57892;DHT22;43708;48.828;9.166;2023-04-03T17:10:15;21.00;68.50
57892;DHT22;43708;48.828;9.166;2023-04-03T17:12:41;21.00;68.60
57892;DHT22;43708;48.828;9.166;2023-04-03T17:15:07;20.90;68.60
57892;DHT22;43708;48.828;9.166;2023-04-03T17:17:32;20.90;68.70